Time;durP1;ratioP1;P1;durP2;ratioP2;P2;SDS_P1;SDS_P2;PMS_P1;PMS_P2;Temp;Humidity;BMP_temperature;BMP_pressure;BME280_temperature;BME280_humidity;BME280_pressure;Samples;Min_cycle;Max_cycle;Signal;HPM_P1;HPM_P2
2022/07/19 00:08:51;;;;;;;2.55;2.08;;;;;;;22.55;37.77;97135.13;5092522;22;20188;-78
2022/07/19 00:11:19;;;;;;;6.95;2.22;;;;;;;22.49;38.03;97133.47;5018317;28;20065;-80
2022/07/19 00:13:46;;;;;;;2.67;1.90;;;;;;;22.47;37.94;97132.09;5019154;28;20080;-78
2022/07/19 00:16:14;;;;;;;2.33;1.73;;;;;;;22.45;37.79;97132.34;5020663;28;20054;-79
2022/07/19 00:18:42;;;;;;;2.55;1.58;;;;;;;22.44;37.82;97130.72;5019314;28;20045;-79
2022/07/19 00:21:10;;;;;;;3.15;1.75;;;;;;;22.39;37.70;97122.66;5020585;28;20049;-79
2022/07/19 01:27:18;;;;;;;3.10;1.98;;;;;;;22.18;38.89;97132.97;5839040;23;20091;-78
2022/07/19 01:29:46;;;;;;;4.78;2.00;;;;;;;22.15;39.21;97128.16;4996522;28;20148;-79
2022/07/19 01:32:13;;;;;;;1.88;1.58;;;;;;;22.13;39.26;97118.84;4995971;28;20433;-79
2022/07/19 01:34:41;;;;;;;2.85;1.73;;;;;;;22.12;39.45;97118.00;4996591;28;20438;-78
2022/07/19 01:37:08;;;;;;;3.47;1.50;;;;;;;22.12;39.29;97118.00;4996131;28;20050;-78
2022/07/19 01:39:36;;;;;;;6.95;2.08;;;;;;;22.09;39.48;97118.50;4996643;28;20065;-79
2022/07/19 03:20:10;;;;;;;3.75;2.38;;;;;;;21.42;42.91;97091.91;5778175;23;20044;-74
2022/07/19 03:22:38;;;;;;;3.03;2.30;;;;;;;21.35;42.45;97082.22;4936908;29;20047;-75
2022/07/19 03:25:06;;;;;;;2.40;2.20;;;;;;;21.35;43.17;97092.84;4936667;29;20431;-74
2022/07/19 03:27:34;;;;;;;4.13;2.35;;;;;;;21.38;44.27;97103.00;4936696;29;20054;-74
2022/07/19 03:30:02;;;;;;;3.25;2.20;;;;;;;21.42;43.86;97091.91;4938445;29;20055;-74
2022/07/19 03:32:29;;;;;;;2.67;2.47;;;;;;;21.45;44.83;97094.06;4938403;29;20059;-74
2022/07/19 03:34:57;;;;;;;2.80;2.40;;;;;;;21.49;44.55;97097.88;4972846;23;20057;-79
2022/07/19 03:37:26;;;;;;;2.80;2.30;;;;;;;21.49;44.64;97092.56;4956161;28;20162;-80
2022/07/19 03:39:53;;;;;;;2.58;2.38;;;;;;;21.46;44.91;97087.75;4961955;29;20138;-80
2022/07/19 03:42:21;;;;;;;3.92;2.47;;;;;;;21.45;44.69;97091.44;4956954;28;20138;-79
2022/07/19 03:44:49;;;;;;;6.85;2.92;;;;;;;21.40;44.81;97094.78;4956804;28;20142;-79
2022/07/19 03:47:16;;;;;;;4.72;2.80;;;;;;;21.42;45.66;97094.56;4957316;28;20055;-79
2022/07/19 03:49:44;;;;;;;4.57;3.05;;;;;;;21.43;45.29;97093.50;4954452;28;20066;-79
2022/07/19 03:52:13;;;;;;;4.72;3.28;;;;;;;21.39;44.90;97091.31;4954908;28;20110;-79
2022/07/19 03:54:46;;;;;;;3.75;2.60;;;;;;;21.39;45.83;97095.81;4957682;28;20087;-79
2022/07/19 03:57:13;;;;;;;8.35;2.80;;;;;;;21.39;45.83;97099.28;4955278;28;20070;-79
2022/07/19 03:59:41;;;;;;;4.13;2.95;;;;;;;21.39;45.40;97104.59;4955552;28;20057;-80
2022/07/19 04:02:08;;;;;;;5.18;2.92;;;;;;;21.38;45.60;97100.34;4955052;29;20438;-79
2022/07/19 04:04:36;;;;;;;4.40;3.08;;;;;;;21.30;44.93;97100.72;4954974;28;20047;-78
2022/07/19 04:07:04;;;;;;;3.50;3.20;;;;;;;21.27;45.59;97101.16;4955251;28;20066;-78
2022/07/19 04:09:31;;;;;;;4.97;2.88;;;;;;;21.23;45.34;97100.06;4955219;28;20142;-79
2022/07/19 04:12:00;;;;;;;4.38;2.65;;;;;;;21.22;46.44;97097.63;4955046;28;20133;-79
2022/07/19 04:14:28;;;;;;;7.53;3.67;;;;;;;21.23;46.35;97105.38;4954683;28;20057;-79
2022/07/19 04:16:55;;;;;;;4.05;3.05;;;;;;;21.22;46.66;97092.31;4954794;29;20571;-79
2022/07/19 04:19:23;;;;;;;8.90;3.00;;;;;;;21.25;46.96;97099.81;4954646;29;20053;-79
2022/07/19 04:21:50;;;;;;;3.95;3.20;;;;;;;21.24;46.85;97100.84;4954530;28;20138;-79
2022/07/19 04:24:18;;;;;;;4.30;2.95;;;;;;;21.24;47.29;97098.22;4954544;28;20055;-78
2022/07/19 04:26:46;;;;;;;5.68;3.47;;;;;;;21.23;47.28;97099.22;4954803;29;20463;-78
2022/07/19 04:29:15;;;;;;;6.63;3.92;;;;;;;21.17;46.77;97095.69;4954616;29;20053;-79
2022/07/19 04:31:42;;;;;;;9.00;3.80;;;;;;;21.09;45.86;97099.53;4954212;29;20419;-79
2022/07/19 04:34:10;;;;;;;6.20;3.92;;;;;;;20.98;45.99;97095.88;4954623;28;20061;-79
2022/07/19 04:36:38;;;;;;;4.97;3.60;;;;;;;20.93;46.62;97101.09;4954593;29;20051;-79
2022/07/19 04:39:05;;;;;;;3.63;3.33;;;;;;;20.94;47.70;97097.38;4954690;29;20051;-78
2022/07/19 04:41:33;;;;;;;7.78;3.70;;;;;;;20.89;46.35;97101.78;4954213;28;20051;-79
2022/07/19 04:44:01;;;;;;;7.57;3.58;;;;;;;20.83;45.82;97100.88;4954502;28;20479;-79
2022/07/19 04:46:30;;;;;;;7.88;3.10;;;;;;;20.82;45.69;97099.28;4954195;29;20142;-79
2022/07/19 04:48:57;;;;;;;6.80;3.50;;;;;;;20.80;46.02;97097.91;4954419;28;20094;-80
2022/07/19 04:51:25;;;;;;;11.20;4.03;;;;;;;20.78;46.13;97093.63;4955857;29;20142;-79
2022/07/19 04:53:53;;;;;;;8.05;3.92;;;;;;;20.79;46.07;97094.41;4955515;28;20055;-79
2022/07/19 04:56:20;;;;;;;7.45;3.33;;;;;;;20.80;45.38;97096.06;4955357;29;20051;-79
2022/07/19 04:58:48;;;;;;;4.85;3.33;;;;;;;20.81;45.55;97089.69;4954221;28;20414;-79
2022/07/19 05:01:15;;;;;;;6.45;3.88;;;;;;;20.82;45.70;97095.81;4953763;28;20055;-79
2022/07/19 05:03:45;;;;;;;11.40;3.13;;;;;;;20.83;45.44;97092.13;4954204;28;20102;-79
2022/07/19 05:06:12;;;;;;;7.60;3.20;;;;;;;20.84;45.43;97091.88;4954074;29;20062;-79
2022/07/19 05:08:40;;;;;;;8.05;3.67;;;;;;;20.87;45.49;97090.63;4954226;28;20669;-79
2022/07/19 05:11:08;;;;;;;6.32;3.00;;;;;;;20.90;45.44;97088.31;4953921;28;20061;-79
2022/07/19 05:13:35;;;;;;;4.75;2.60;;;;;;;20.92;45.43;97088.84;4953757;28;20069;-79
2022/07/19 05:16:03;;;;;;;3.88;2.83;;;;;;;20.96;45.31;97084.69;4954008;29;20051;-79
2022/07/19 05:18:30;;;;;;;6.88;2.45;;;;;;;20.99;44.87;97084.22;4953979;28;20051;-79
2022/07/19 05:21:00;;;;;;;4.63;2.33;;;;;;;21.04;44.67;97085.38;4953507;28;20043;-79
2022/07/19 05:23:28;;;;;;;3.78;2.40;;;;;;;21.07;44.27;97082.22;4953980;28;20150;-78
2022/07/19 05:25:56;;;;;;;3.30;2.00;;;;;;;21.11;44.44;97094.00;4953966;28;20055;-78
2022/07/19 05:28:23;;;;;;;3.33;2.10;;;;;;;21.13;44.27;97095.34;4954012;29;20047;-79
2022/07/19 05:30:51;;;;;;;5.03;2.22;;;;;;;21.19;43.95;97088.31;4953719;29;20142;-79
2022/07/19 05:33:19;;;;;;;3.33;2.03;;;;;;;21.23;44.01;97088.63;4953804;28;20427;-79
2022/07/19 05:35:46;;;;;;;4.93;2.00;;;;;;;21.27;44.01;97087.91;4953804;28;20054;-78
2022/07/19 05:38:15;;;;;;;3.80;2.25;;;;;;;21.30;43.84;97087.44;4953603;29;20047;-78
2022/07/19 05:40:43;;;;;;;3.03;2.25;;;;;;;21.35;43.93;97081.41;4953658;28;20048;-79
2022/07/19 05:43:10;;;;;;;8.32;3.35;;;;;;;21.40;43.96;97090.25;4954559;29;20089;-79
2022/07/19 05:45:38;;;;;;;5.30;2.38;;;;;;;21.44;43.86;97085.31;4954152;28;20495;-79
2022/07/19 05:48:05;;;;;;;12.27;2.10;;;;;;;21.48;43.60;97090.97;4953847;29;20054;-79
2022/07/19 05:50:33;;;;;;;7.50;2.28;;;;;;;21.53;43.72;97096.34;4953361;28;20142;-78
2022/07/19 05:53:00;;;;;;;5.93;2.63;;;;;;;21.57;43.75;97090.31;4953605;28;20047;-78
2022/07/19 05:55:29;;;;;;;4.88;2.70;;;;;;;21.63;43.53;97093.88;4953773;28;20051;-78
2022/07/19 05:57:57;;;;;;;4.30;2.13;;;;;;;21.68;43.56;97095.81;4953791;29;20051;-79
2022/07/19 06:00:24;;;;;;;11.07;2.53;;;;;;;21.72;43.49;97097.75;4953662;29;20423;-78
2022/07/19 06:02:52;;;;;;;5.20;2.00;;;;;;;21.78;43.28;97102.09;4955007;29;20106;-79
2022/07/19 06:05:20;;;;;;;7.55;2.13;;;;;;;21.84;43.42;97099.50;4954654;28;20055;-79
2022/07/19 06:07:47;;;;;;;4.10;2.05;;;;;;;21.88;43.11;97104.09;4954384;28;20043;-79
2022/07/19 06:10:15;;;;;;;3.45;1.98;;;;;;;21.94;43.43;97107.66;4953638;28;20540;-78
2022/07/19 06:12:44;;;;;;;5.95;2.17;;;;;;;21.99;43.26;97105.06;4960071;28;20051;-80
2022/07/19 06:15:11;;;;;;;4.82;1.75;;;;;;;22.06;43.33;97107.53;4959663;28;20484;-80
2022/07/19 06:17:39;;;;;;;6.90;2.00;;;;;;;22.13;42.86;97108.22;4957099;28;20055;-79
2022/07/19 06:20:08;;;;;;;7.72;2.00;;;;;;;22.18;42.70;97101.09;4956604;28;20051;-79
2022/07/19 06:22:35;;;;;;;3.35;1.70;;;;;;;22.25;42.59;97100.16;4957270;28;20059;-79
2022/07/19 06:25:05;;;;;;;3.85;2.05;;;;;;;22.32;42.60;97100.78;4956902;28;20053;-79
2022/07/19 06:27:32;;;;;;;3.60;1.77;;;;;;;22.38;42.45;97094.50;4957137;28;20416;-79
2022/07/19 06:30:02;;;;;;;4.68;2.28;;;;;;;22.45;42.84;97103.09;4956762;28;20137;-78
2022/07/19 06:32:30;;;;;;;4.05;2.20;;;;;;;22.52;42.58;97101.09;4956924;29;20051;-79
2022/07/19 06:34:57;;;;;;;3.17;1.83;;;;;;;22.59;42.45;97101.69;4960700;28;20146;-79
2022/07/19 06:37:25;;;;;;;4.00;1.83;;;;;;;22.64;42.36;97098.28;4968174;28;20059;-80
2022/07/19 06:39:52;;;;;;;17.25;2.42;;;;;;;22.74;42.52;97097.59;4967088;29;20143;-79
2022/07/19 06:42:20;;;;;;;3.10;2.20;;;;;;;22.81;42.46;97095.59;4957418;28;20142;-79
2022/07/19 06:44:47;;;;;;;7.07;2.33;;;;;;;22.90;42.40;97099.41;4959245;28;20143;-79
2022/07/19 06:47:16;;;;;;;4.00;2.10;;;;;;;22.99;42.86;97095.25;4956965;29;20083;-79
2022/07/19 06:49:44;;;;;;;5.68;2.00;;;;;;;23.10;42.79;97098.06;4956738;29;20575;-79
2022/07/19 06:52:11;;;;;;;3.65;2.15;;;;;;;23.20;42.45;97096.31;4956351;29;20146;-78
2022/07/19 06:54:41;;;;;;;5.60;2.30;;;;;;;23.29;42.50;97083.38;4956520;28;20563;-78
2022/07/19 06:57:09;;;;;;;5.68;2.45;;;;;;;23.39;42.75;97082.66;4956469;29;20061;-78
2022/07/19 06:59:36;;;;;;;7.65;2.88;;;;;;;23.49;42.24;97087.28;4956287;29;20051;-78
2022/07/19 07:02:05;;;;;;;6.75;1.90;;;;;;;23.59;42.22;97082.03;4956218;29;20142;-79
2022/07/19 07:04:34;;;;;;;3.13;1.85;;;;;;;23.67;40.94;97078.91;4956449;28;20065;-78
2022/07/19 07:07:12;;;;;;;3.85;1.60;;;;;;;23.79;40.76;97084.06;4956268;29;20055;-78
2022/07/19 07:09:40;;;;;;;2.45;1.10;;;;;;;23.90;39.54;97080.47;4956072;28;20051;-78
2022/07/19 07:12:08;;;;;;;2.92;1.23;;;;;;;24.04;38.88;97078.16;4955649;28;20051;-78
2022/07/19 07:14:36;;;;;;;2.08;1.48;;;;;;;24.16;38.74;97076.09;4955920;28;20053;-79
2022/07/19 07:17:03;;;;;;;1.83;1.33;;;;;;;24.30;38.40;97080.97;4956159;29;20063;-79
2022/07/19 07:19:31;;;;;;;1.70;1.10;;;;;;;24.43;38.51;97083.97;4955964;29;20051;-78
2022/07/19 07:22:01;;;;;;;1.67;1.42;;;;;;;24.57;38.18;97075.53;4955904;29;20471;-78
2022/07/19 07:24:29;;;;;;;1.02;1.00;;;;;;;24.66;36.84;97080.13;4956055;28;20055;-78
2022/07/19 07:26:57;;;;;;;2.10;1.48;;;;;;;24.79;36.87;97075.34;4955924;29;20142;-79
2022/07/19 07:29:24;;;;;;;2.03;1.33;;;;;;;24.93;36.11;97062.34;4956124;28;20051;-78
2022/07/19 07:31:52;;;;;;;5.60;1.40;;;;;;;25.05;35.36;97065.56;4955712;29;20093;-79
2022/07/19 07:34:20;;;;;;;3.30;1.30;;;;;;;25.17;35.07;97062.66;4955547;28;20142;-79
2022/07/19 07:36:47;;;;;;;3.20;1.50;;;;;;;25.29;34.49;97065.91;4955712;29;20404;-78
2022/07/19 07:39:17;;;;;;;2.72;1.30;;;;;;;25.41;34.32;97063.81;4955940;28;20098;-79
2022/07/19 07:41:45;;;;;;;2.58;1.33;;;;;;;25.55;34.48;97063.28;4955456;29;20133;-79
2022/07/19 07:44:27;;;;;;;12.38;2.38;;;;;;;25.65;34.77;97065.97;4956479;28;20051;-79
2022/07/19 07:46:54;;;;;;;3.80;1.42;;;;;;;25.76;33.89;97059.53;4956322;28;20053;-79
2022/07/19 07:49:22;;;;;;;2.55;1.50;;;;;;;25.87;33.98;97061.13;4956194;29;20525;-79
2022/07/19 07:51:50;;;;;;;2.05;1.13;;;;;;;25.97;33.75;97056.88;4955874;28;20051;-80
2022/07/19 07:54:19;;;;;;;2.53;1.50;;;;;;;26.06;34.00;97058.75;4955936;28;20051;-79
2022/07/19 07:56:47;;;;;;;4.50;1.33;;;;;;;26.16;33.98;97057.91;4956242;29;20093;-79
2022/07/19 07:59:15;;;;;;;2.72;1.40;;;;;;;26.26;32.97;97068.59;4959058;28;20050;-80
2022/07/19 08:01:44;;;;;;;2.72;1.80;;;;;;;26.36;33.01;97074.97;4958390;28;20423;-80
2022/07/19 08:04:11;;;;;;;2.55;1.67;;;;;;;26.45;33.01;97070.66;4956570;28;20044;-80
2022/07/19 08:06:39;;;;;;;2.97;1.27;;;;;;;26.54;32.73;97069.03;4956104;28;20093;-79
2022/07/19 08:09:07;;;;;;;2.75;1.70;;;;;;;26.63;32.21;97064.75;4955912;28;20393;-80
2022/07/19 08:11:36;;;;;;;2.15;1.52;;;;;;;26.76;31.72;97075.94;4955796;28;20051;-79
2022/07/19 08:14:04;;;;;;;4.40;1.58;;;;;;;26.84;31.24;97067.34;4955889;28;20051;-79
2022/07/19 08:16:32;;;;;;;2.20;1.15;;;;;;;26.92;31.18;97066.78;4955722;28;20515;-79
2022/07/19 08:18:59;;;;;;;1.23;1.10;;;;;;;27.02;30.94;97066.69;4956535;28;20059;-79
2022/07/19 08:21:27;;;;;;;1.85;1.13;;;;;;;27.11;30.78;97059.69;4956110;29;20408;-79
2022/07/19 08:23:54;;;;;;;1.55;1.45;;;;;;;27.22;30.83;97060.47;4956093;28;20054;-79
2022/07/19 08:26:22;;;;;;;1.38;1.27;;;;;;;27.32;29.69;97057.72;4956324;28;20089;-79
2022/07/19 08:28:51;;;;;;;9.45;1.45;;;;;;;27.42;28.83;97064.88;4956091;29;20058;-79
2022/07/19 08:31:19;;;;;;;2.58;0.95;;;;;;;27.51;28.79;97055.16;4956100;29;20087;-79
2022/07/19 08:33:47;;;;;;;3.22;1.50;;;;;;;27.61;28.21;97045.44;4956444;28;20058;-79
2022/07/19 08:36:14;;;;;;;8.48;1.50;;;;;;;27.71;27.59;97053.41;4956359;28;20073;-79
2022/07/19 08:38:42;;;;;;;3.67;1.25;;;;;;;27.77;27.18;97046.94;4956399;28;20523;-79
2022/07/19 08:41:10;;;;;;;2.40;1.10;;;;;;;27.84;26.99;97052.75;4956673;29;20043;-79
2022/07/19 08:43:38;;;;;;;1.58;1.30;;;;;;;27.92;27.58;97052.19;4956722;28;20043;-80
2022/07/19 08:46:07;;;;;;;1.85;1.30;;;;;;;28.02;26.96;97053.16;4956280;28;20122;-79
2022/07/19 08:48:36;;;;;;;5.10;1.25;;;;;;;28.11;26.81;97054.13;4957295;28;20087;-78
2022/07/19 08:51:13;;;;;;;1.88;1.08;;;;;;;28.17;26.68;97053.00;4955896;29;20043;-80
2022/07/19 08:53:40;;;;;;;1.33;1.23;;;;;;;28.24;27.06;97052.66;4955730;28;20055;-80
2022/07/19 08:58:50;;;;;;;3.92;1.00;;;;;;;28.40;26.55;97053.28;4962694;29;20066;-81
2022/07/19 09:01:19;;;;;;;2.92;1.20;;;;;;;28.47;26.47;97059.09;4965491;29;20051;-81
2022/07/19 09:04:09;;;;;;;3.28;1.40;;;;;;;28.55;26.70;97055.81;4963858;28;20083;-81
2022/07/19 09:06:47;;;;;;;1.10;1.00;;;;;;;28.63;26.04;97049.81;4967570;29;20083;-80
2022/07/19 09:09:17;;;;;;;2.88;1.20;;;;;;;28.71;25.70;97040.31;4965066;29;20051;-80
2022/07/19 09:11:50;;;;;;;3.67;1.70;;;;;;;28.80;25.57;97045.84;4959510;28;20135;-80
2022/07/19 09:14:20;;;;;;;1.58;1.30;;;;;;;28.89;26.21;97049.50;4957392;28;20055;-80
2022/07/19 09:16:56;;;;;;;4.85;1.20;;;;;;;28.99;26.05;97048.56;4957089;28;20082;-79
2022/07/19 09:19:24;;;;;;;2.72;1.60;;;;;;;29.06;25.43;97044.44;4956729;28;20401;-79
2022/07/19 09:21:58;;;;;;;2.92;1.27;;;;;;;29.12;24.61;97043.28;4956545;28;20047;-79
2022/07/19 09:24:27;;;;;;;6.00;1.65;;;;;;;29.19;25.34;97045.63;4957039;28;20150;-80
2022/07/19 09:27:04;;;;;;;4.85;1.73;;;;;;;29.27;25.33;97055.69;4957952;29;20055;-79
2022/07/19 09:29:33;;;;;;;3.42;1.23;;;;;;;29.36;24.85;97053.16;4957353;28;20114;-80
2022/07/19 09:32:08;;;;;;;3.00;1.70;;;;;;;29.44;25.07;97054.41;4957902;28;20411;-79
2022/07/19 09:45:31;;;;;;;3.00;1.45;;;;;;;29.78;24.09;97054.13;4977606;28;20031;-84
2022/07/19 09:55:38;;;;;;;3.13;1.45;;;;;;;30.01;23.37;97062.34;4946740;29;20064;-88
2022/07/19 12:16:46;;;;;;;2.33;1.48;;;;;;;32.16;22.42;96928.97;5465990;23;20301;-79
2022/07/19 12:19:20;;;;;;;1.80;1.70;;;;;;;32.19;22.55;96927.56;5041760;23;20053;-79
2022/07/19 12:21:59;;;;;;;3.97;1.35;;;;;;;32.18;21.52;96913.25;5019352;28;20036;-80
2022/07/19 12:27:27;;;;;;;3.40;1.05;;;;;;;32.21;21.92;96906.47;5478900;23;20061;-79
2022/07/19 12:30:02;;;;;;;3.40;1.30;;;;;;;32.22;21.70;96906.13;5020680;28;20026;-81
2022/07/19 12:35:57;;;;;;;1.83;1.45;;;;;;;32.28;20.79;96901.38;4938161;26;20033;-81
2022/07/19 12:38:45;;;;;;;4.47;1.75;;;;;;;32.31;20.57;96897.25;5020573;28;20046;-80
2022/07/19 12:41:21;;;;;;;2.33;1.38;;;;;;;32.33;21.38;96898.53;5020700;28;20047;-81
2022/07/19 12:44:00;;;;;;;5.25;1.48;;;;;;;32.37;20.56;96904.88;5020326;28;20030;-81
2022/07/19 14:21:06;;;;;;;4.97;1.98;;;;;;;32.79;19.52;96808.00;3671457;23;20318;-81
2022/07/19 14:23:34;;;;;;;5.65;2.10;;;;;;;32.79;19.59;96810.69;4986817;28;20086;-81
2022/07/19 14:26:02;;;;;;;2.92;1.60;;;;;;;32.81;19.70;96818.50;4986590;28;20061;-81
2022/07/19 14:28:30;;;;;;;6.32;2.08;;;;;;;32.80;19.83;96806.09;4986680;28;20062;-81
2022/07/19 14:30:58;;;;;;;2.25;1.95;;;;;;;32.79;19.06;96793.69;4986481;28;20109;-80
2022/07/19 14:33:27;;;;;;;8.45;2.33;;;;;;;32.79;19.71;96797.19;4987347;28;20050;-82
2022/07/19 14:35:55;;;;;;;4.57;1.92;;;;;;;32.78;19.12;96803.72;4996170;23;20101;-75
2022/07/19 14:38:23;;;;;;;3.67;1.50;;;;;;;32.77;19.57;96807.53;4975683;28;20047;-75
2022/07/19 14:40:51;;;;;;;4.97;1.80;;;;;;;32.76;19.66;96800.53;4975448;28;20046;-75
2022/07/19 14:43:19;;;;;;;3.72;2.47;;;;;;;32.76;19.58;96795.16;4975838;28;20046;-74
2022/07/19 14:45:47;;;;;;;4.05;1.88;;;;;;;32.76;19.47;96795.16;4975752;28;20050;-75
2022/07/19 14:48:15;;;;;;;3.03;1.90;;;;;;;32.78;19.46;96797.53;4975420;28;20579;-75
2022/07/19 14:50:42;;;;;;;2.47;1.65;;;;;;;32.79;19.68;96794.50;4975469;28;20421;-75
2022/07/19 14:53:10;;;;;;;8.93;1.55;;;;;;;32.79;19.58;96789.09;4975591;28;20455;-75
2022/07/19 14:55:39;;;;;;;6.15;1.70;;;;;;;32.80;20.26;96790.69;4975715;28;20109;-74
2022/07/19 14:58:06;;;;;;;5.53;1.95;;;;;;;32.80;20.25;96789.91;4975437;28;20047;-75
2022/07/19 15:00:34;;;;;;;5.85;2.60;;;;;;;32.78;19.82;96795.63;4975132;28;20058;-75
2022/07/19 15:03:02;;;;;;;3.53;1.60;;;;;;;32.78;18.94;96792.91;4975291;28;20046;-75
2022/07/19 15:05:29;;;;;;;5.50;1.92;;;;;;;32.80;18.46;96789.91;4975422;28;20093;-75
2022/07/19 15:07:57;;;;;;;3.75;2.15;;;;;;;32.80;18.99;96790.69;4975038;28;20082;-75
2022/07/19 15:10:25;;;;;;;6.18;1.95;;;;;;;32.81;18.93;96786.84;4974991;28;20122;-75
2022/07/19 15:12:53;;;;;;;2.53;2.17;;;;;;;32.81;19.63;96789.56;4975275;28;20086;-75
2022/07/19 15:15:21;;;;;;;1.67;1.50;;;;;;;32.79;19.30;96778.28;4975076;28;20415;-75
2022/07/19 15:17:48;;;;;;;6.00;1.80;;;;;;;32.77;19.90;96775.09;4975218;28;20101;-75
2022/07/19 15:20:16;;;;;;;2.28;1.30;;;;;;;32.76;18.89;96783.56;4974538;28;20051;-75
2022/07/19 15:22:44;;;;;;;4.60;1.65;;;;;;;32.75;19.06;96771.94;4974922;28;20848;-75
2022/07/19 15:25:11;;;;;;;2.10;1.50;;;;;;;32.77;19.74;96775.09;4975048;28;20085;-75
2022/07/19 15:27:40;;;;;;;3.50;1.75;;;;;;;32.78;19.18;96771.31;4974960;28;20434;-75
2022/07/19 15:30:09;;;;;;;4.90;1.60;;;;;;;32.78;19.82;96771.31;4974661;28;20085;-74
2022/07/19 15:32:37;;;;;;;2.47;1.48;;;;;;;32.78;18.73;96765.91;4974871;28;20074;-75
2022/07/19 15:35:06;;;;;;;2.50;1.38;;;;;;;32.77;18.92;96764.31;4974898;28;20480;-74
2022/07/19 15:37:41;;;;;;;7.20;2.10;;;;;;;32.77;19.08;96758.91;4974872;28;20061;-74
2022/07/19 15:40:09;;;;;;;2.53;1.48;;;;;;;32.78;18.27;96763.19;4974419;28;20426;-74
2022/07/19 15:42:45;;;;;;;3.28;1.48;;;;;;;32.79;18.94;96759.38;4955330;29;20127;-74
2022/07/19 15:45:15;;;;;;;2.58;1.50;;;;;;;32.81;18.85;96759.84;4955026;28;20055;-74
2022/07/19 15:47:43;;;;;;;3.20;1.35;;;;;;;32.81;19.30;96761.75;4955472;29;20105;-75
2022/07/19 15:50:12;;;;;;;2.83;1.45;;;;;;;32.79;19.09;96759.38;4954688;29;20492;-74
2022/07/19 15:52:40;;;;;;;3.42;1.45;;;;;;;32.79;19.08;96750.47;4955227;29;20142;-76
2022/07/19 15:55:09;;;;;;;2.78;1.50;;;;;;;32.80;19.47;96757.50;4954945;28;20078;-74
2022/07/19 15:57:37;;;;;;;2.97;1.67;;;;;;;32.79;19.52;96755.88;4955178;29;20142;-73
2022/07/19 16:00:07;;;;;;;2.90;1.70;;;;;;;32.78;19.71;96749.69;4954573;29;20498;-74
2022/07/19 16:02:38;;;;;;;3.22;1.85;;;;;;;32.78;18.79;96748.91;4955184;29;20059;-74
2022/07/19 16:05:07;;;;;;;2.55;1.30;;;;;;;32.75;18.86;96744.91;4955080;28;20485;-74
2022/07/19 16:07:34;;;;;;;2.88;1.45;;;;;;;32.74;19.12;96747.97;4954894;29;20392;-74
2022/07/19 16:10:02;;;;;;;1.67;1.45;;;;;;;32.73;19.06;96735.56;4954338;29;20055;-74
2022/07/19 16:12:30;;;;;;;4.63;1.75;;;;;;;32.73;19.03;96738.25;4954729;29;20067;-74
2022/07/19 16:14:57;;;;;;;2.50;1.20;;;;;;;32.73;19.29;96739.03;4954788;28;20047;-74
2022/07/19 16:17:26;;;;;;;3.05;1.50;;;;;;;32.75;19.05;96738.72;4954863;29;20047;-73
2022/07/19 16:19:55;;;;;;;3.53;1.30;;;;;;;32.76;19.18;96741.13;4954593;29;20043;-74
2022/07/19 16:22:22;;;;;;;3.25;1.65;;;;;;;32.75;19.47;96725.22;4954491;29;20102;-74
2022/07/19 16:24:50;;;;;;;3.10;1.50;;;;;;;32.76;19.05;96733.00;4954701;28;20055;-74
2022/07/19 16:27:19;;;;;;;1.80;1.30;;;;;;;32.76;18.85;96734.94;4954605;29;20061;-74
2022/07/19 16:29:50;;;;;;;5.05;1.70;;;;;;;32.74;19.24;96737.16;4954665;29;20142;-74
2022/07/19 16:32:19;;;;;;;1.58;1.45;;;;;;;32.73;19.36;96730.94;4954432;29;20130;-74
2022/07/19 16:34:47;;;;;;;2.85;1.38;;;;;;;32.71;19.06;96726.97;4954307;28;20078;-74
2022/07/19 16:37:17;;;;;;;1.92;1.38;;;;;;;32.69;18.99;96735.44;4954262;29;20055;-74
2022/07/19 16:39:45;;;;;;;3.58;1.30;;;;;;;32.67;18.82;96726.03;4954355;29;20055;-74
2022/07/19 16:42:13;;;;;;;1.70;1.20;;;;;;;32.67;19.06;96726.03;4954366;29;20083;-74
2022/07/19 16:44:41;;;;;;;1.88;1.23;;;;;;;32.66;18.64;96735.25;4954345;28;20134;-76
2022/07/19 16:47:09;;;;;;;2.83;1.50;;;;;;;32.66;18.83;96724.47;4954258;29;20486;-75
2022/07/19 16:49:37;;;;;;;1.35;1.25;;;;;;;32.66;18.75;96719.84;4954134;29;20109;-74
2022/07/19 16:52:06;;;;;;;2.85;1.48;;;;;;;32.66;18.61;96721.75;4953670;29;20043;-74
2022/07/19 16:54:35;;;;;;;4.07;1.45;;;;;;;32.66;19.14;96717.16;4954184;28;20047;-74
2022/07/19 16:57:03;;;;;;;8.30;1.73;;;;;;;32.66;19.27;96719.06;4953716;28;20061;-74
2022/07/19 16:59:30;;;;;;;3.40;1.42;;;;;;;32.65;18.94;96720.97;4954568;29;20051;-74
2022/07/19 17:01:58;;;;;;;5.32;1.50;;;;;;;32.65;19.15;96718.28;4953792;29;20130;-74
2022/07/19 17:04:27;;;;;;;3.15;1.60;;;;;;;32.63;18.72;96715.88;4953951;28;20055;-74
2022/07/19 17:06:55;;;;;;;2.45;1.52;;;;;;;32.63;18.71;96720.50;4953937;29;20058;-74
2022/07/19 17:09:24;;;;;;;4.07;1.27;;;;;;;32.63;19.24;96720.50;4954022;29;20077;-74
2022/07/19 17:11:53;;;;;;;5.22;2.53;;;;;;;32.61;18.72;96717.31;4953378;29;20423;-74
2022/07/19 17:14:20;;;;;;;8.10;1.55;;;;;;;32.60;18.94;96719.25;4946206;28;20051;-74
2022/07/19 17:16:48;;;;;;;4.40;1.88;;;;;;;32.60;18.83;96713.03;4953735;29;20051;-74
2022/07/19 17:19:15;;;;;;;5.80;2.10;;;;;;;32.58;18.92;96713.38;4953514;29;20055;-74
2022/07/19 17:21:43;;;;;;;4.97;1.88;;;;;;;32.58;19.08;96717.97;4953212;29;20523;-73
2022/07/19 17:24:10;;;;;;;2.55;1.75;;;;;;;32.57;19.64;96721.78;4953979;29;20129;-74
2022/07/19 17:26:39;;;;;;;1.95;1.48;;;;;;;32.55;19.47;96718.63;4953444;28;20570;-74
2022/07/19 17:29:08;;;;;;;3.13;1.40;;;;;;;32.53;19.75;96726.25;4953722;29;20134;-74
2022/07/19 17:31:36;;;;;;;2.85;1.75;;;;;;;32.52;19.76;96713.84;4953133;29;20059;-75
2022/07/19 17:34:04;;;;;;;8.02;1.75;;;;;;;32.49;20.13;96709.06;4953653;29;20117;-74
2022/07/19 17:36:32;;;;;;;2.42;1.45;;;;;;;32.48;19.69;96716.38;4953787;28;20051;-75
2022/07/19 17:38:59;;;;;;;3.13;1.35;;;;;;;32.46;19.52;96707.00;4953857;29;20522;-75
2022/07/19 17:41:27;;;;;;;3.42;1.35;;;;;;;32.43;19.77;96708.44;4953222;29;20053;-75
2022/07/19 17:43:54;;;;;;;2.60;1.75;;;;;;;32.42;19.65;96715.75;4953385;29;20057;-74
2022/07/19 17:46:23;;;;;;;2.78;1.55;;;;;;;32.39;19.91;96705.59;4953163;28;20135;-74
2022/07/19 17:48:51;;;;;;;2.65;1.63;;;;;;;32.39;20.07;96710.22;4953298;29;20059;-75
2022/07/19 17:51:19;;;;;;;3.10;1.83;;;;;;;32.36;20.19;96706.25;4953247;29;20051;-74
2022/07/19 17:53:46;;;;;;;6.78;1.60;;;;;;;32.34;20.04;96705.78;4953412;29;20488;-74
2022/07/19 17:56:14;;;;;;;2.97;1.88;;;;;;;32.31;20.30;96709.09;4953378;28;20047;-75
2022/07/19 17:58:41;;;;;;;4.22;1.52;;;;;;;32.29;20.36;96710.53;4953160;29;20051;-75
2022/07/19 18:01:09;;;;;;;4.60;1.35;;;;;;;32.26;20.35;96705.78;4953264;29;20051;-75
2022/07/19 18:03:39;;;;;;;2.45;1.55;;;;;;;32.22;20.47;96711.00;4953112;29;20496;-75
2022/07/19 18:06:07;;;;;;;2.30;1.40;;;;;;;32.20;20.29;96702.44;4953456;28;20059;-75
2022/07/19 18:08:34;;;;;;;5.95;1.60;;;;;;;32.16;20.36;96696.09;4954339;28;20065;-75
2022/07/19 18:11:02;;;;;;;5.10;1.45;;;;;;;32.14;20.63;96692.91;4956610;29;20143;-75
2022/07/19 18:13:29;;;;;;;2.22;1.77;;;;;;;32.10;20.47;96697.38;4956546;29;20043;-75
2022/07/19 18:15:57;;;;;;;3.63;1.58;;;;;;;32.05;20.71;96695.63;4957055;28;20090;-75
2022/07/19 18:18:48;;;;;;;4.97;1.58;;;;;;;32.02;20.34;96699.75;4957103;29;20427;-75
2022/07/19 18:21:16;;;;;;;;;;;;;;;31.99;20.73;96708.50;4957055;29;20058;-75
2022/07/19 18:23:44;;;;;;;3.75;2.42;;;;;;;31.94;20.54;96700.50;4956553;29;20021;-74
2022/07/19 18:26:11;;;;;;;3.95;1.60;;;;;;;31.87;20.64;96694.81;4956993;28;20134;-74
2022/07/19 18:28:39;;;;;;;5.38;1.85;;;;;;;31.83;20.89;96693.84;4956864;29;20170;-75
2022/07/19 18:31:07;;;;;;;3.28;1.55;;;;;;;31.80;20.89;96699.91;4956444;29;20109;-74
2022/07/19 18:33:35;;;;;;;2.05;1.38;;;;;;;31.75;21.02;96694.63;4956832;29;20082;-75
2022/07/19 18:36:04;;;;;;;2.75;1.48;;;;;;;31.71;21.15;96696.41;4956536;28;20065;-75
2022/07/19 18:38:32;;;;;;;5.03;1.65;;;;;;;31.66;21.46;96693.84;4956388;29;20079;-74
2022/07/19 18:41:00;;;;;;;5.40;1.70;;;;;;;31.61;21.60;96692.09;4956285;29;20081;-74
2022/07/19 18:43:27;;;;;;;3.60;1.48;;;;;;;31.56;21.75;96698.44;4956073;29;20047;-74
2022/07/19 18:45:55;;;;;;;3.38;1.90;;;;;;;31.52;21.86;96694.78;4956277;28;20430;-74
2022/07/19 18:48:29;;;;;;;8.05;1.45;;;;;;;31.48;21.99;96703.81;4956164;29;20098;-74
2022/07/19 18:50:57;;;;;;;3.13;1.67;;;;;;;31.42;22.30;96705.84;4956168;29;20051;-75